Time,TemperatureF,DewpointF,PressureIn,WindDirection,WindDirectionDegrees,WindSpeedMPH,WindSpeedGustMPH,Humidity,HourlyPrecipIn,Conditions,Clouds,dailyrainin,SoftwareType,DateUTC
2013-02-01 00:00:00,2.6,-6.2,30.45,NW,323,0.0,0.0,66,0.00,,,0.01,Wunderground v.1.15,2013-02-01 06:00:00,
2013-02-01 00:10:00,1.8,-7.0,30.44,NW,322,0.0,0.0,66,0.00,,,0.00,Wunderground v.1.15,2013-02-01 06:10:00,
2013-02-01 00:20:00,1.5,-6.9,30.45,SW,233,0.0,2.0,67,0.00,,,0.00,Wunderground v.1.15,2013-02-01 06:20:00,
2013-02-01 00:30:00,1.8,-6.6,30.45,SW,224,2.0,4.0,67,0.00,,,0.00,Wunderground v.1.15,2013-02-01 06:30:00,
2013-02-01 00:40:00,2.2,-6.6,30.45,WSW,253,3.0,6.0,66,0.00,,,0.00,Wunderground v.1.15,2013-02-01 06:40:00,
2013-02-01 00:45:00,1.8,-7.3,30.45,WSW,253,3.0,6.0,65,0.00,,,0.00,Wunderground v.1.15,2013-02-01 06:45:00,
2013-02-01 00:55:00,1.8,-7.0,30.45,WSW,253,3.0,6.0,66,0.00,,,0.00,Wunderground v.1.15,2013-02-01 06:55:00,
2013-02-01 01:05:00,2.0,-6.8,30.44,WSW,254,2.0,3.0,66,0.00,,,0.00,Wunderground v.1.15,2013-02-01 07:05:00,
2013-02-01 01:15:00,1.7,-7.0,30.44,WSW,254,2.0,4.0,66,0.00,,,0.00,Wunderground v.1.15,2013-02-01 07:15:00,
2013-02-01 01:25:00,1.5,-7.2,30.44,WSW,254,2.0,2.0,66,0.00,,,0.00,Wunderground v.1.15,2013-02-01 07:25:00,
2013-02-01 01:35:00,1.3,-7.1,30.43,WSW,254,1.0,4.0,67,0.00,,,0.00,Wunderground v.1.15,2013-02-01 07:35:00,
2013-02-01 01:45:00,1.5,-6.9,30.43,WSW,254,2.0,4.0,67,0.00,,,0.00,Wunderground v.1.15,2013-02-01 07:45:00,
2013-02-01 01:50:00,1.5,-6.9,30.44,WSW,254,3.0,3.0,67,0.00,,,0.00,Wunderground v.1.15,2013-02-01 07:50:00,
2013-02-01 02:00:00,1.5,-6.9,30.44,WSW,254,2.0,2.0,67,0.00,,,0.00,Wunderground v.1.15,2013-02-01 08:00:00,
2013-02-01 02:05:00,1.5,-6.9,30.44,WSW,254,1.0,2.0,67,0.00,,,0.00,Wunderground v.1.15,2013-02-01 08:05:00,
2013-02-01 02:15:00,1.3,-7.1,30.44,WSW,254,2.0,2.0,67,0.00,,,0.00,Wunderground v.1.15,2013-02-01 08:15:00,
2013-02-01 02:25:00,1.3,-6.8,30.43,WSW,254,3.0,6.0,68,0.00,,,0.00,Wunderground v.1.15,2013-02-01 08:25:00,
2013-02-01 02:30:00,1.3,-7.1,30.43,WSW,254,3.0,3.0,67,0.00,,,0.00,Wunderground v.1.15,2013-02-01 08:30:00,
2013-02-01 02:40:00,1.3,-7.1,30.43,WSW,254,1.0,4.0,67,0.00,,,0.00,Wunderground v.1.15,2013-02-01 08:40:00,
2013-02-01 02:45:00,1.5,-6.6,30.43,WNW,289,2.0,4.0,68,0.00,,,0.00,Wunderground v.1.15,2013-02-01 08:45:00,
2013-02-01 02:55:00,1.3,-6.8,30.41,WNW,289,1.0,2.0,68,0.00,,,0.00,Wunderground v.1.15,2013-02-01 08:55:00,
2013-02-01 03:05:00,1.5,-6.6,30.41,WNW,289,1.0,1.0,68,0.00,,,0.00,Wunderground v.1.15,2013-02-01 09:05:00,
2013-02-01 03:15:00,1.5,-6.6,30.41,West,278,3.0,4.0,68,0.00,,,0.00,Wunderground v.1.15,2013-02-01 09:15:00,
2013-02-01 03:20:00,1.7,-6.1,30.42,West,278,3.0,3.0,69,0.00,,,0.00,Wunderground v.1.15,2013-02-01 09:20:00,
2013-02-01 03:30:00,2.2,-5.6,30.42,West,274,3.0,3.0,69,0.00,,,0.00,Wunderground v.1.15,2013-02-01 09:30:00,
2013-02-01 03:35:00,2.6,-5.6,30.41,West,274,2.0,3.0,68,0.00,,,0.00,Wunderground v.1.15,2013-02-01 09:35:00,
2013-02-01 03:45:00,3.2,-5.3,30.41,West,274,2.0,2.0,67,0.00,,,0.00,Wunderground v.1.15,2013-02-01 09:45:00,
2013-02-01 03:55:00,2.8,-5.7,30.40,West,274,1.0,2.0,67,0.00,,,0.00,Wunderground v.1.15,2013-02-01 09:55:00,
2013-02-01 04:00:00,2.6,-5.9,30.40,West,274,1.0,4.0,67,0.00,,,0.00,Wunderground v.1.15,2013-02-01 10:00:00,
2013-02-01 04:10:00,2.2,-6.0,30.40,WSW,241,3.0,6.0,68,0.00,,,0.00,Wunderground v.1.15,2013-02-01 10:10:00,
2013-02-01 04:15:00,2.0,-6.1,30.40,SW,216,2.0,6.0,68,0.00,,,0.00,Wunderground v.1.15,2013-02-01 10:15:00,
2013-02-01 04:25:00,1.3,-6.8,30.41,SW,215,0.0,1.0,68,0.00,,,0.00,Wunderground v.1.15,2013-02-01 10:25:00,
2013-02-01 04:30:00,1.3,-6.5,30.41,SW,215,0.0,1.0,69,0.00,,,0.00,Wunderground v.1.15,2013-02-01 10:30:00,
2013-02-01 04:40:00,1.5,-6.3,30.41,SW,215,1.0,1.0,69,0.00,,,0.00,Wunderground v.1.15,2013-02-01 10:40:00,
2013-02-01 04:50:00,1.8,-6.0,30.39,SW,215,0.0,0.0,69,0.00,,,0.00,Wunderground v.1.15,2013-02-01 10:50:00,
2013-02-01 05:00:00,1.8,-6.0,30.39,SW,215,0.0,0.0,69,0.00,,,0.00,Wunderground v.1.15,2013-02-01 11:00:00,
2013-02-01 05:05:00,1.8,-6.0,30.40,SW,215,0.0,1.0,69,0.00,,,0.00,Wunderground v.1.15,2013-02-01 11:05:00,
2013-02-01 05:15:00,2.0,-5.8,30.40,SW,215,1.0,2.0,69,0.00,,,0.00,Wunderground v.1.15,2013-02-01 11:15:00,
2013-02-01 05:20:00,1.8,-6.3,30.40,SW,215,1.0,1.0,68,0.00,,,0.00,Wunderground v.1.15,2013-02-01 11:20:00,
2013-02-01 05:30:00,1.8,-6.0,30.40,SW,215,0.0,0.0,69,0.00,,,0.00,Wunderground v.1.15,2013-02-01 11:30:00,
2013-02-01 05:40:00,1.5,-6.3,30.40,SW,215,1.0,1.0,69,0.00,,,0.00,Wunderground v.1.15,2013-02-01 11:40:00,
2013-02-01 05:50:00,1.5,-6.0,30.40,SW,215,0.0,0.0,70,0.00,,,0.00,Wunderground v.1.15,2013-02-01 11:50:00,
2013-02-01 05:55:00,1.5,-6.0,30.40,SW,215,0.0,0.0,70,0.00,,,0.00,Wunderground v.1.15,2013-02-01 11:55:00,
2013-02-01 06:05:00,1.7,-5.8,30.40,SW,215,0.0,0.0,70,0.00,,,0.00,Wunderground v.1.15,2013-02-01 12:05:00,
2013-02-01 06:15:00,1.7,-5.8,30.40,SW,215,0.0,1.0,70,0.00,,,0.00,Wunderground v.1.15,2013-02-01 12:15:00,
2013-02-01 06:25:00,1.5,-6.3,30.40,SW,215,0.0,1.0,69,0.00,,,0.00,Wunderground v.1.15,2013-02-01 12:25:00,
2013-02-01 06:30:00,1.3,-6.5,30.40,SW,215,1.0,1.0,69,0.00,,,0.00,Wunderground v.1.15,2013-02-01 12:30:00,
2013-02-01 06:40:00,0.7,-6.8,30.41,SW,215,0.0,0.0,70,0.00,,,0.00,Wunderground v.1.15,2013-02-01 12:40:00,
2013-02-01 06:50:00,0.5,-7.0,30.42,SW,215,2.0,6.0,70,0.00,,,0.00,Wunderground v.1.15,2013-02-01 12:50:00,
2013-02-01 07:00:00,0.3,-7.2,30.42,SW,215,3.0,3.0,70,0.00,,,0.00,Wunderground v.1.15,2013-02-01 13:00:00,
2013-02-01 07:05:00,0.7,-6.5,30.41,SW,215,1.0,3.0,71,0.00,,,0.00,Wunderground v.1.15,2013-02-01 13:05:00,
2013-02-01 07:15:00,0.9,-6.6,30.41,SW,215,0.0,1.0,70,0.00,,,0.00,Wunderground v.1.15,2013-02-01 13:15:00,
2013-02-01 07:25:00,1.1,-6.4,30.41,SW,215,0.0,0.0,70,0.00,,,0.00,Wunderground v.1.15,2013-02-01 13:25:00,
2013-02-01 07:35:00,1.5,-6.0,30.42,SW,215,1.0,2.0,70,0.00,,,0.00,Wunderground v.1.15,2013-02-01 13:35:00,
2013-02-01 07:45:00,0.5,-7.0,30.42,SW,215,3.0,4.0,70,0.00,,,0.00,Wunderground v.1.15,2013-02-01 13:45:00,
2013-02-01 07:50:00,0.7,-6.5,30.42,SW,215,1.0,1.0,71,0.00,,,0.00,Wunderground v.1.15,2013-02-01 13:50:00,
2013-02-01 08:00:00,1.3,-6.2,30.42,SSW,213,1.0,7.0,70,0.00,,,0.00,Wunderground v.1.15,2013-02-01 14:00:00,
2013-02-01 08:15:00,1.3,-5.9,30.42,SSW,205,3.0,4.0,71,0.00,,,0.00,Wunderground v.1.15,2013-02-01 14:15:00,
2013-02-01 08:25:00,2.0,-5.5,30.42,SSW,198,3.0,3.0,70,0.00,,,0.00,Wunderground v.1.15,2013-02-01 14:25:00,
2013-02-01 08:30:00,2.6,-4.7,30.42,SSW,198,3.0,3.0,71,0.00,,,0.00,Wunderground v.1.15,2013-02-01 14:30:00,
2013-02-01 08:40:00,3.9,-3.7,30.42,SSE,157,1.0,1.0,70,0.00,,,0.00,Wunderground v.1.15,2013-02-01 14:40:00,
2013-02-01 08:45:00,4.3,-3.6,30.42,SE,141,0.0,1.0,69,0.00,,,0.00,Wunderground v.1.15,2013-02-01 14:45:00,
2013-02-01 08:55:00,4.8,-3.8,30.41,SSE,147,1.0,1.0,67,0.00,,,0.00,Wunderground v.1.15,2013-02-01 14:55:00,
2013-02-01 09:05:00,6.0,-2.6,30.40,SE,145,4.0,6.0,67,0.00,,,0.00,Wunderground v.1.15,2013-02-01 15:05:00,
2013-02-01 09:15:00,6.9,-2.4,30.40,NNW,347,4.0,6.0,65,0.00,,,0.00,Wunderground v.1.15,2013-02-01 15:15:00,
2013-02-01 09:20:00,6.9,-2.7,30.40,SE,128,2.0,2.0,64,0.00,,,0.00,Wunderground v.1.15,2013-02-01 15:20:00,
2013-02-01 09:30:00,7.7,-2.0,30.40,SE,143,0.0,0.0,64,0.00,,,0.00,Wunderground v.1.15,2013-02-01 15:30:00,
2013-02-01 09:40:00,8.1,-1.9,30.39,SSE,150,2.0,6.0,63,0.00,,,0.00,Wunderground v.1.15,2013-02-01 15:40:00,
2013-02-01 09:45:00,8.6,-1.4,30.39,South,182,4.0,6.0,63,0.00,,,0.00,Wunderground v.1.15,2013-02-01 15:45:00,
2013-02-01 09:55:00,9.2,-1.2,30.38,SE,141,0.0,3.0,62,0.00,,,0.00,Wunderground v.1.15,2013-02-01 15:55:00,
2013-02-01 10:05:00,9.5,-0.9,30.37,South,176,0.0,0.0,62,0.00,,,0.00,Wunderground v.1.15,2013-02-01 16:05:00,
2013-02-01 10:15:00,10.0,-0.4,30.37,South,191,0.0,0.0,62,0.00,,,0.00,Wunderground v.1.15,2013-02-01 16:15:00,
2013-02-01 10:25:00,11.1,0.3,30.37,SE,136,0.0,0.0,61,0.00,,,0.00,Wunderground v.1.15,2013-02-01 16:25:00,
2013-02-01 10:30:00,11.1,0.3,30.37,SSE,157,0.0,0.0,61,0.00,,,0.00,Wunderground v.1.15,2013-02-01 16:30:00,
2013-02-01 10:40:00,11.7,0.5,30.36,SSE,160,0.0,0.0,60,0.00,,,0.00,Wunderground v.1.15,2013-02-01 16:40:00,
2013-02-01 10:50:00,12.8,1.9,30.36,SE,145,0.0,0.0,61,0.00,,,0.00,Wunderground v.1.15,2013-02-01 16:50:00,
2013-02-01 10:55:00,13.1,1.8,30.36,SE,143,0.0,0.0,60,0.00,,,0.00,Wunderground v.1.15,2013-02-01 16:55:00,
2013-02-01 11:05:00,13.6,2.3,30.34,South,178,0.0,0.0,60,0.00,,,0.00,Wunderground v.1.15,2013-02-01 17:05:00,
2013-02-01 11:15:00,14.6,3.6,30.34,SSE,151,0.0,0.0,61,0.00,,,0.00,Wunderground v.1.15,2013-02-01 17:15:00,
2013-02-01 11:25:00,15.1,4.4,30.33,South,176,0.0,0.0,62,0.00,,,0.00,Wunderground v.1.15,2013-02-01 17:25:00,
2013-02-01 11:30:00,15.7,5.0,30.33,SSE,155,0.0,0.0,62,0.00,,,0.00,Wunderground v.1.15,2013-02-01 17:30:00,
2013-02-01 11:40:00,16.5,5.7,30.32,SSE,165,0.0,0.0,62,0.00,,,0.00,Wunderground v.1.15,2013-02-01 17:40:00,
2013-02-01 11:45:00,16.9,5.8,30.32,South,178,0.0,0.0,61,0.00,,,0.00,Wunderground v.1.15,2013-02-01 17:45:00,
2013-02-01 11:55:00,17.2,6.4,30.31,South,176,0.0,0.0,62,0.00,,,0.00,Wunderground v.1.15,2013-02-01 17:55:00,
2013-02-01 12:05:00,17.8,7.0,30.30,SE,144,0.0,0.0,62,0.00,,,0.00,Wunderground v.1.15,2013-02-01 18:05:00,
2013-02-01 12:10:00,18.3,7.4,30.30,South,182,0.0,0.0,62,0.00,,,0.00,Wunderground v.1.15,2013-02-01 18:10:00,
2013-02-01 12:20:00,18.9,8.0,30.29,South,184,0.0,0.0,62,0.00,,,0.00,Wunderground v.1.15,2013-02-01 18:20:00,
2013-02-01 12:25:00,19.1,7.8,30.29,South,171,0.0,0.0,61,0.00,,,0.00,Wunderground v.1.15,2013-02-01 18:25:00,
2013-02-01 12:35:00,19.4,8.5,30.28,South,171,0.0,0.0,62,0.00,,,0.00,Wunderground v.1.15,2013-02-01 18:35:00,
2013-02-01 12:45:00,19.4,8.1,30.28,SSE,151,0.0,0.0,61,0.00,,,0.00,Wunderground v.1.15,2013-02-01 18:45:00,
2013-02-01 12:55:00,20.0,8.7,30.27,South,169,0.0,0.0,61,0.00,,,0.00,Wunderground v.1.15,2013-02-01 18:55:00,
2013-02-01 13:00:00,20.2,8.9,30.27,South,186,0.0,0.0,61,0.00,,,0.00,Wunderground v.1.15,2013-02-01 19:00:00,
2013-02-01 13:10:00,20.0,8.7,30.27,South,172,0.0,0.0,61,0.00,,,0.00,Wunderground v.1.15,2013-02-01 19:10:00,
2013-02-01 13:15:00,20.2,8.9,30.27,SSW,210,0.0,0.0,61,0.00,,,0.00,Wunderground v.1.15,2013-02-01 19:15:00,
2013-02-01 13:25:00,20.8,9.5,30.26,South,191,2.0,4.0,61,0.00,,,0.00,Wunderground v.1.15,2013-02-01 19:25:00,
2013-02-01 13:35:00,21.3,9.9,30.25,SSE,147,0.0,1.0,61,0.00,,,0.00,Wunderground v.1.15,2013-02-01 19:35:00,
2013-02-01 13:45:00,21.4,10.0,30.25,South,186,0.0,0.0,61,0.00,,,0.00,Wunderground v.1.15,2013-02-01 19:45:00,
2013-02-01 13:55:00,21.9,10.5,30.24,South,178,0.0,0.0,61,0.00,,,0.00,Wunderground v.1.15,2013-02-01 19:55:00,
2013-02-01 14:00:00,22.1,10.7,30.24,SSW,192,0.0,0.0,61,0.00,,,0.00,Wunderground v.1.15,2013-02-01 20:00:00,
2013-02-01 14:10:00,22.2,11.1,30.23,SSW,196,0.0,0.0,62,0.00,,,0.00,Wunderground v.1.15,2013-02-01 20:10:00,
2013-02-01 14:20:00,22.5,10.7,30.22,South,185,0.0,0.0,60,0.00,,,0.00,Wunderground v.1.15,2013-02-01 20:20:00,
2013-02-01 14:25:00,22.9,11.4,30.22,SSW,195,0.0,0.0,61,0.00,,,0.00,Wunderground v.1.15,2013-02-01 20:25:00,
2013-02-01 14:35:00,23.2,11.7,30.22,South,186,0.0,0.0,61,0.00,,,0.00,Wunderground v.1.15,2013-02-01 20:35:00,
2013-02-01 14:45:00,23.5,12.0,30.22,SSW,205,0.0,0.0,61,0.00,,,0.00,Wunderground v.1.15,2013-02-01 20:45:00,
2013-02-01 14:55:00,23.3,11.8,30.20,SSW,198,0.0,0.0,61,0.00,,,0.00,Wunderground v.1.15,2013-02-01 20:55:00,
2013-02-01 15:00:00,23.5,11.6,30.20,SSW,195,0.0,0.0,60,0.00,,,0.00,Wunderground v.1.15,2013-02-01 21:00:00,
2013-02-01 15:10:00,23.6,12.1,30.20,South,191,0.0,0.0,61,0.00,,,0.00,Wunderground v.1.15,2013-02-01 21:10:00,
2013-02-01 15:20:00,23.8,11.5,30.19,SSW,213,0.0,0.0,59,0.00,,,0.00,Wunderground v.1.15,2013-02-01 21:20:00,
2013-02-01 15:30:00,23.8,12.3,30.19,South,191,0.0,0.0,61,0.00,,,0.00,Wunderground v.1.15,2013-02-01 21:30:00,
2013-02-01 15:40:00,23.9,12.4,30.18,SSE,164,0.0,0.0,61,0.00,,,0.00,Wunderground v.1.15,2013-02-01 21:40:00,
2013-02-01 15:45:00,23.9,12.0,30.18,SSW,193,0.0,0.0,60,0.00,,,0.00,Wunderground v.1.15,2013-02-01 21:45:00,
2013-02-01 15:55:00,23.9,12.4,30.17,SE,144,0.0,0.0,61,0.00,,,0.00,Wunderground v.1.15,2013-02-01 21:55:00,
2013-02-01 16:05:00,24.1,12.9,30.16,South,184,0.0,0.0,62,0.00,,,0.00,Wunderground v.1.15,2013-02-01 22:05:00,
2013-02-01 16:10:00,24.1,12.9,30.16,South,174,0.0,0.0,62,0.00,,,0.00,Wunderground v.1.15,2013-02-01 22:10:00,
2013-02-01 16:20:00,24.2,13.4,30.16,SSW,202,0.0,0.0,63,0.00,,,0.00,Wunderground v.1.15,2013-02-01 22:20:00,
2013-02-01 16:30:00,24.5,14.1,30.16,SE,138,0.0,0.0,64,0.00,,,0.00,Wunderground v.1.15,2013-02-01 22:30:00,
2013-02-01 16:40:00,24.7,14.2,30.14,SSE,162,0.0,0.0,64,0.00,,,0.00,Wunderground v.1.15,2013-02-01 22:40:00,
2013-02-01 16:45:00,24.8,14.0,30.14,SSE,150,0.0,0.0,63,0.00,,,0.00,Wunderground v.1.15,2013-02-01 22:45:00,
2013-02-01 16:55:00,24.7,13.9,30.14,SSE,167,0.0,0.0,63,0.00,,,0.00,Wunderground v.1.15,2013-02-01 22:55:00,
2013-02-01 17:05:00,24.7,13.9,30.14,SSE,158,0.0,0.0,63,0.00,,,0.00,Wunderground v.1.15,2013-02-01 23:05:00,
2013-02-01 17:15:00,24.7,14.2,30.14,South,186,0.0,0.0,64,0.00,,,0.00,Wunderground v.1.15,2013-02-01 23:15:00,
2013-02-01 17:25:00,24.7,14.2,30.13,South,175,0.0,0.0,64,0.00,,,0.00,Wunderground v.1.15,2013-02-01 23:25:00,
2013-02-01 17:30:00,24.5,14.1,30.13,SSE,148,0.0,0.0,64,0.00,,,0.00,Wunderground v.1.15,2013-02-01 23:30:00,
2013-02-01 17:40:00,24.4,14.0,30.12,SSE,154,0.0,0.0,64,0.00,,,0.00,Wunderground v.1.15,2013-02-01 23:40:00,
2013-02-01 17:45:00,24.4,14.0,30.12,South,171,0.0,0.0,64,0.00,,,0.00,Wunderground v.1.15,2013-02-01 23:45:00,
2013-02-01 17:55:00,24.1,14.0,30.12,South,182,0.0,0.0,65,0.00,,,0.00,Wunderground v.1.15,2013-02-01 23:55:00,
2013-02-01 18:05:00,23.8,13.7,30.11,SSE,158,0.0,0.0,65,0.00,,,0.00,Wunderground v.1.15,2013-02-02 00:05:00,
2013-02-01 18:10:00,23.8,13.7,30.11,SSE,152,0.0,0.0,65,0.00,,,0.00,Wunderground v.1.15,2013-02-02 00:10:00,
2013-02-01 18:20:00,23.5,13.8,30.13,SSE,168,0.0,0.0,66,0.00,,,0.00,Wunderground v.1.15,2013-02-02 00:20:00,
2013-02-01 18:25:00,23.2,13.5,30.13,South,179,0.0,0.0,66,0.00,,,0.00,Wunderground v.1.15,2013-02-02 00:25:00,
2013-02-01 18:35:00,23.0,13.7,30.13,South,182,0.0,0.0,67,0.00,,,0.00,Wunderground v.1.15,2013-02-02 00:35:00,
2013-02-01 18:45:00,23.0,13.3,30.13,SSE,161,0.0,0.0,66,0.00,,,0.00,Wunderground v.1.15,2013-02-02 00:45:00,
2013-02-01 18:55:00,23.0,13.3,30.14,South,174,0.0,0.0,66,0.00,,,0.00,Wunderground v.1.15,2013-02-02 00:55:00,
2013-02-01 19:00:00,22.9,13.2,30.14,South,179,0.0,0.0,66,0.00,,,0.00,Wunderground v.1.15,2013-02-02 01:00:00,
2013-02-01 19:10:00,22.9,13.6,30.14,South,181,0.0,0.0,67,0.00,,,0.00,Wunderground v.1.15,2013-02-02 01:10:00,
2013-02-01 19:15:00,23.0,13.7,30.14,SSE,161,0.0,0.0,67,0.00,,,0.00,Wunderground v.1.15,2013-02-02 01:15:00,
2013-02-01 19:25:00,23.0,13.7,30.14,SSE,155,0.0,0.0,67,0.00,,,0.00,Wunderground v.1.15,2013-02-02 01:25:00,
2013-02-01 19:35:00,23.0,13.7,30.14,SSE,161,0.0,0.0,67,0.00,,,0.00,Wunderground v.1.15,2013-02-02 01:35:00,
2013-02-01 19:40:00,23.0,13.7,30.14,South,172,0.0,0.0,67,0.00,,,0.00,Wunderground v.1.15,2013-02-02 01:40:00,
2013-02-01 19:50:00,23.0,13.7,30.14,SE,144,0.0,0.0,67,0.00,,,0.00,Wunderground v.1.15,2013-02-02 01:50:00,
2013-02-01 20:00:00,22.9,13.6,30.14,SSE,147,0.0,0.0,67,0.00,,,0.00,Wunderground v.1.15,2013-02-02 02:00:00,
2013-02-01 20:05:00,22.7,13.4,30.11,SSE,158,0.0,0.0,67,0.00,,,0.00,Wunderground v.1.15,2013-02-02 02:05:00,
2013-02-01 20:15:00,22.9,13.6,30.11,SSE,154,0.0,0.0,67,0.00,,,0.00,Wunderground v.1.15,2013-02-02 02:15:00,
2013-02-01 20:25:00,23.2,14.2,30.11,SSE,165,0.0,0.0,68,0.00,,,0.00,Wunderground v.1.15,2013-02-02 02:25:00,
2013-02-01 20:30:00,23.0,14.0,30.11,SSE,150,0.0,0.0,68,0.00,,,0.00,Wunderground v.1.15,2013-02-02 02:30:00,
2013-02-01 20:40:00,23.0,14.0,30.11,SSE,155,0.0,0.0,68,0.00,,,0.00,Wunderground v.1.15,2013-02-02 02:40:00,
2013-02-01 20:50:00,23.0,14.0,30.10,South,171,0.0,0.0,68,0.00,,,0.00,Wunderground v.1.15,2013-02-02 02:50:00,
2013-02-01 20:55:00,23.2,14.2,30.10,South,191,0.0,0.0,68,0.00,,,0.00,Wunderground v.1.15,2013-02-02 02:55:00,
2013-02-01 21:05:00,23.3,14.3,30.11,SSE,158,0.0,0.0,68,0.00,,,0.00,Wunderground v.1.15,2013-02-02 03:05:00,
2013-02-01 21:10:00,23.5,14.1,30.11,South,172,0.0,0.0,67,0.00,,,0.00,Wunderground v.1.15,2013-02-02 03:10:00,
2013-02-01 21:20:00,23.5,14.1,30.10,SSE,151,0.0,0.0,67,0.00,,,0.00,Wunderground v.1.15,2013-02-02 03:20:00,
2013-02-01 21:30:00,23.6,14.2,30.10,SSE,148,0.0,0.0,67,0.00,,,0.00,Wunderground v.1.15,2013-02-02 03:30:00,
2013-02-01 21:35:00,23.6,14.2,30.10,South,178,0.0,0.0,67,0.00,,,0.00,Wunderground v.1.15,2013-02-02 03:35:00,
2013-02-01 21:45:00,23.8,14.4,30.10,SSE,164,0.0,0.0,67,0.00,,,0.00,Wunderground v.1.15,2013-02-02 03:45:00,
2013-02-01 21:55:00,24.2,14.8,30.09,SSE,152,0.0,0.0,67,0.00,,,0.00,Wunderground v.1.15,2013-02-02 03:55:00,
2013-02-01 22:05:00,24.4,14.7,30.08,SSE,154,0.0,0.0,66,0.00,,,0.00,Wunderground v.1.15,2013-02-02 04:05:00,
2013-02-01 22:15:00,24.4,14.7,30.08,South,191,0.0,0.0,66,0.00,,,0.00,Wunderground v.1.15,2013-02-02 04:15:00,
2013-02-01 22:20:00,24.4,15.0,30.08,South,184,0.0,0.0,67,0.00,,,0.00,Wunderground v.1.15,2013-02-02 04:20:00,
2013-02-01 22:30:00,24.5,15.1,30.08,SSW,193,0.0,0.0,67,0.00,,,0.00,Wunderground v.1.15,2013-02-02 04:30:00,
2013-02-01 22:40:00,24.7,14.9,30.07,SSW,208,0.0,0.0,66,0.00,,,0.00,Wunderground v.1.15,2013-02-02 04:40:00,
2013-02-01 22:50:00,24.8,15.0,30.07,South,178,0.0,0.0,66,0.00,,,0.00,Wunderground v.1.15,2013-02-02 04:50:00,
2013-02-01 22:55:00,25.0,14.9,30.07,SSW,203,0.0,0.0,65,0.00,,,0.00,Wunderground v.1.15,2013-02-02 04:55:00,
2013-02-01 23:00:00,25.3,15.2,30.07,South,185,0.0,0.0,65,0.00,,,0.00,Wunderground v.1.15,2013-02-02 05:00:00,
2013-02-01 23:05:00,25.4,14.9,30.06,South,182,0.0,0.0,64,0.00,,,0.00,Wunderground v.1.15,2013-02-02 05:05:00,
2013-02-01 23:10:00,25.6,14.7,30.06,South,175,0.0,0.0,63,0.00,,,0.00,Wunderground v.1.15,2013-02-02 05:10:00,
2013-02-01 23:20:00,25.4,14.9,30.05,SSW,198,0.0,0.0,64,0.00,,,0.00,Wunderground v.1.15,2013-02-02 05:20:00,
2013-02-01 23:25:00,25.4,14.9,30.05,SSW,192,0.0,0.0,64,0.00,,,0.00,Wunderground v.1.15,2013-02-02 05:25:00,
2013-02-01 23:30:00,25.3,14.8,30.05,SSW,199,0.0,0.0,64,0.00,,,0.00,Wunderground v.1.15,2013-02-02 05:30:00,
2013-02-01 23:35:00,25.3,14.8,30.05,South,185,0.0,0.0,64,0.00,,,0.00,Wunderground v.1.15,2013-02-02 05:35:00,
2013-02-01 23:45:00,25.1,14.6,30.05,SSW,195,0.0,0.0,64,0.00,,,0.00,Wunderground v.1.15,2013-02-02 05:45:00,
2013-02-01 23:55:00,25.1,14.6,30.05,SSW,208,0.0,0.0,64,0.00,,,0.00,Wunderground v.1.15,2013-02-02 05:55:00,